sensor_id;sensor_type;location;lat;lon;timestamp;P1;durP1;ratioP1;P2;durP2;ratioP2
16242;SDS011;11719;51.052;6.982;2024-03-02T00:00:48;1.00;;;0.80;;
16242;SDS011;11719;51.052;6.982;2024-03-02T00:03:16;0.97;;;0.60;;
16242;SDS011;11719;51.052;6.982;2024-03-02T00:05:42;0.80;;;0.60;;
16242;SDS011;11719;51.052;6.982;2024-03-02T00:08:08;0.77;;;0.53;;
16242;SDS011;11719;51.052;6.982;2024-03-02T00:10:37;0.97;;;0.50;;
16242;SDS011;11719;51.052;6.982;2024-03-02T00:13:09;1.27;;;0.73;;
16242;SDS011;11719;51.052;6.982;2024-03-02T00:15:48;1.23;;;0.63;;
16242;SDS011;11719;51.052;6.982;2024-03-02T00:18:26;0.50;;;0.40;;
16242;SDS011;11719;51.052;6.982;2024-03-02T00:20:56;0.40;;;0.40;;
16242;SDS011;11719;51.052;6.982;2024-03-02T00:23:23;0.80;;;0.60;;
16242;SDS011;11719;51.052;6.982;2024-03-02T00:25:53;1.43;;;0.70;;
16242;SDS011;11719;51.052;6.982;2024-03-02T00:28:24;0.80;;;0.47;;
16242;SDS011;11719;51.052;6.982;2024-03-02T00:33:34;1.00;;;0.67;;
16242;SDS011;11719;51.052;6.982;2024-03-02T00:36:02;0.80;;;0.60;;
16242;SDS011;11719;51.052;6.982;2024-03-02T00:38:32;0.23;;;0.23;;
16242;SDS011;11719;51.052;6.982;2024-03-02T00:41:06;0.43;;;0.37;;
16242;SDS011;11719;51.052;6.982;2024-03-02T00:46:12;1.17;;;0.50;;
16242;SDS011;11719;51.052;6.982;2024-03-02T00:48:59;1.17;;;0.70;;
16242;SDS011;11719;51.052;6.982;2024-03-02T00:51:28;1.03;;;0.20;;
16242;SDS011;11719;51.052;6.982;2024-03-02T00:53:57;0.57;;;0.50;;
16242;SDS011;11719;51.052;6.982;2024-03-02T00:56:25;0.83;;;0.53;;
16242;SDS011;11719;51.052;6.982;2024-03-02T00:58:54;0.90;;;0.43;;
16242;SDS011;11719;51.052;6.982;2024-03-02T01:01:19;1.13;;;0.60;;
16242;SDS011;11719;51.052;6.982;2024-03-02T01:03:46;0.97;;;0.60;;
16242;SDS011;11719;51.052;6.982;2024-03-02T01:06:12;1.37;;;0.40;;
16242;SDS011;11719;51.052;6.982;2024-03-02T01:08:41;2.03;;;0.63;;
16242;SDS011;11719;51.052;6.982;2024-03-02T01:11:07;0.27;;;0.23;;
16242;SDS011;11719;51.052;6.982;2024-03-02T01:13:33;1.07;;;0.60;;
16242;SDS011;11719;51.052;6.982;2024-03-02T01:15:59;0.40;;;0.40;;
16242;SDS011;11719;51.052;6.982;2024-03-02T01:18:29;1.03;;;0.50;;
16242;SDS011;11719;51.052;6.982;2024-03-02T01:20:55;1.33;;;0.80;;
16242;SDS011;11719;51.052;6.982;2024-03-02T01:23:24;0.70;;;0.40;;
16242;SDS011;11719;51.052;6.982;2024-03-02T01:25:50;0.90;;;0.70;;
16242;SDS011;11719;51.052;6.982;2024-03-02T01:28:17;2.50;;;0.60;;
16242;SDS011;11719;51.052;6.982;2024-03-02T01:30:46;0.90;;;0.50;;
16242;SDS011;11719;51.052;6.982;2024-03-02T01:33:13;0.70;;;0.40;;
16242;SDS011;11719;51.052;6.982;2024-03-02T01:35:38;0.80;;;0.60;;
16242;SDS011;11719;51.052;6.982;2024-03-02T01:38:04;1.23;;;0.37;;
16242;SDS011;11719;51.052;6.982;2024-03-02T01:40:34;1.40;;;0.50;;
16242;SDS011;11719;51.052;6.982;2024-03-02T01:43:00;1.87;;;0.50;;
16242;SDS011;11719;51.052;6.982;2024-03-02T01:45:27;2.37;;;0.57;;
16242;SDS011;11719;51.052;6.982;2024-03-02T01:47:53;0.37;;;0.27;;
16242;SDS011;11719;51.052;6.982;2024-03-02T01:50:31;0.60;;;0.40;;
16242;SDS011;11719;51.052;6.982;2024-03-02T01:52:58;0.47;;;0.40;;
16242;SDS011;11719;51.052;6.982;2024-03-02T01:55:24;0.70;;;0.30;;
16242;SDS011;11719;51.052;6.982;2024-03-02T01:57:51;0.93;;;0.33;;
16242;SDS011;11719;51.052;6.982;2024-03-02T02:00:18;1.27;;;0.67;;
16242;SDS011;11719;51.052;6.982;2024-03-02T02:02:45;0.93;;;0.50;;
16242;SDS011;11719;51.052;6.982;2024-03-02T02:05:17;0.67;;;0.37;;
16242;SDS011;11719;51.052;6.982;2024-03-02T02:07:43;0.60;;;0.37;;
16242;SDS011;11719;51.052;6.982;2024-03-02T02:10:12;0.60;;;0.30;;
16242;SDS011;11719;51.052;6.982;2024-03-02T02:12:38;1.03;;;0.40;;
16242;SDS011;11719;51.052;6.982;2024-03-02T02:15:20;1.33;;;0.43;;
16242;SDS011;11719;51.052;6.982;2024-03-02T02:17:54;1.60;;;0.60;;
16242;SDS011;11719;51.052;6.982;2024-03-02T02:20:21;2.43;;;0.57;;
16242;SDS011;11719;51.052;6.982;2024-03-02T02:23:03;0.30;;;0.20;;
16242;SDS011;11719;51.052;6.982;2024-03-02T02:25:30;0.67;;;0.63;;
16242;SDS011;11719;51.052;6.982;2024-03-02T02:27:57;0.73;;;0.50;;
16242;SDS011;11719;51.052;6.982;2024-03-02T02:30:24;1.67;;;0.30;;
16242;SDS011;11719;51.052;6.982;2024-03-02T02:32:55;1.00;;;0.40;;
16242;SDS011;11719;51.052;6.982;2024-03-02T02:35:21;0.83;;;0.53;;
16242;SDS011;11719;51.052;6.982;2024-03-02T02:37:49;0.90;;;0.40;;
16242;SDS011;11719;51.052;6.982;2024-03-02T02:40:15;0.90;;;0.50;;
16242;SDS011;11719;51.052;6.982;2024-03-02T02:42:43;1.00;;;0.50;;
16242;SDS011;11719;51.052;6.982;2024-03-02T02:45:09;0.70;;;0.70;;
16242;SDS011;11719;51.052;6.982;2024-03-02T02:47:37;1.07;;;0.60;;
16242;SDS011;11719;51.052;6.982;2024-03-02T02:50:03;0.50;;;0.30;;
16242;SDS011;11719;51.052;6.982;2024-03-02T02:52:32;1.73;;;0.77;;
16242;SDS011;11719;51.052;6.982;2024-03-02T02:55:02;1.90;;;0.50;;
16242;SDS011;11719;51.052;6.982;2024-03-02T02:57:29;0.40;;;0.40;;
16242;SDS011;11719;51.052;6.982;2024-03-02T03:00:00;1.20;;;0.50;;
16242;SDS011;11719;51.052;6.982;2024-03-02T03:02:48;0.70;;;0.50;;
16242;SDS011;11719;51.052;6.982;2024-03-02T03:05:14;1.07;;;0.40;;
16242;SDS011;11719;51.052;6.982;2024-03-02T03:07:43;1.23;;;0.67;;
16242;SDS011;11719;51.052;6.982;2024-03-02T03:10:09;1.27;;;0.60;;
16242;SDS011;11719;51.052;6.982;2024-03-02T03:12:36;1.50;;;0.50;;
16242;SDS011;11719;51.052;6.982;2024-03-02T03:15:02;1.27;;;0.40;;
16242;SDS011;11719;51.052;6.982;2024-03-02T03:17:29;0.60;;;0.60;;
16242;SDS011;11719;51.052;6.982;2024-03-02T03:19:55;2.43;;;0.73;;
16242;SDS011;11719;51.052;6.982;2024-03-02T03:22:21;0.63;;;0.50;;
16242;SDS011;11719;51.052;6.982;2024-03-02T03:24:49;0.77;;;0.47;;
16242;SDS011;11719;51.052;6.982;2024-03-02T03:27:15;0.30;;;0.30;;
16242;SDS011;11719;51.052;6.982;2024-03-02T03:29:43;0.90;;;0.57;;
16242;SDS011;11719;51.052;6.982;2024-03-02T03:32:09;1.83;;;0.80;;
16242;SDS011;11719;51.052;6.982;2024-03-02T03:34:35;1.27;;;0.70;;
16242;SDS011;11719;51.052;6.982;2024-03-02T03:37:01;1.43;;;0.50;;
16242;SDS011;11719;51.052;6.982;2024-03-02T03:39:28;0.67;;;0.50;;
16242;SDS011;11719;51.052;6.982;2024-03-02T03:41:54;0.87;;;0.50;;
16242;SDS011;11719;51.052;6.982;2024-03-02T03:44:20;0.60;;;0.53;;
16242;SDS011;11719;51.052;6.982;2024-03-02T03:46:45;1.10;;;0.90;;
16242;SDS011;11719;51.052;6.982;2024-03-02T03:49:11;0.47;;;0.40;;
16242;SDS011;11719;51.052;6.982;2024-03-02T03:51:37;1.10;;;0.47;;
16242;SDS011;11719;51.052;6.982;2024-03-02T03:54:02;2.20;;;0.50;;
16242;SDS011;11719;51.052;6.982;2024-03-02T03:56:34;0.87;;;0.40;;
16242;SDS011;11719;51.052;6.982;2024-03-02T03:59:00;0.50;;;0.33;;
16242;SDS011;11719;51.052;6.982;2024-03-02T04:01:28;0.43;;;0.43;;
16242;SDS011;11719;51.052;6.982;2024-03-02T04:03:53;2.13;;;0.50;;
16242;SDS011;11719;51.052;6.982;2024-03-02T04:06:19;0.50;;;0.50;;
16242;SDS011;11719;51.052;6.982;2024-03-02T04:08:45;0.67;;;0.40;;
16242;SDS011;11719;51.052;6.982;2024-03-02T04:11:11;2.70;;;0.77;;
16242;SDS011;11719;51.052;6.982;2024-03-02T04:13:36;1.70;;;0.60;;
16242;SDS011;11719;51.052;6.982;2024-03-02T04:16:02;0.57;;;0.50;;
16242;SDS011;11719;51.052;6.982;2024-03-02T04:18:30;0.70;;;0.53;;
16242;SDS011;11719;51.052;6.982;2024-03-02T04:20:57;1.30;;;0.60;;
16242;SDS011;11719;51.052;6.982;2024-03-02T04:23:24;0.57;;;0.53;;
16242;SDS011;11719;51.052;6.982;2024-03-02T04:25:53;1.33;;;1.00;;
16242;SDS011;11719;51.052;6.982;2024-03-02T04:28:19;0.70;;;0.50;;
16242;SDS011;11719;51.052;6.982;2024-03-02T04:30:45;1.10;;;0.57;;
16242;SDS011;11719;51.052;6.982;2024-03-02T04:33:11;1.53;;;0.77;;
16242;SDS011;11719;51.052;6.982;2024-03-02T04:35:36;1.70;;;0.70;;
16242;SDS011;11719;51.052;6.982;2024-03-02T04:38:02;0.80;;;0.47;;
16242;SDS011;11719;51.052;6.982;2024-03-02T04:40:28;0.97;;;0.60;;
16242;SDS011;11719;51.052;6.982;2024-03-02T04:42:54;1.83;;;0.40;;
16242;SDS011;11719;51.052;6.982;2024-03-02T04:45:20;0.60;;;0.57;;
16242;SDS011;11719;51.052;6.982;2024-03-02T04:47:46;0.50;;;0.40;;
16242;SDS011;11719;51.052;6.982;2024-03-02T04:50:14;1.07;;;0.50;;
16242;SDS011;11719;51.052;6.982;2024-03-02T04:52:43;1.23;;;0.93;;
16242;SDS011;11719;51.052;6.982;2024-03-02T04:55:09;1.20;;;0.73;;
16242;SDS011;11719;51.052;6.982;2024-03-02T04:57:36;1.80;;;0.80;;
16242;SDS011;11719;51.052;6.982;2024-03-02T05:00:02;2.70;;;0.73;;
16242;SDS011;11719;51.052;6.982;2024-03-02T05:02:32;1.17;;;0.67;;
16242;SDS011;11719;51.052;6.982;2024-03-02T05:04:57;1.13;;;0.60;;
16242;SDS011;11719;51.052;6.982;2024-03-02T05:07:23;1.07;;;0.60;;
16242;SDS011;11719;51.052;6.982;2024-03-02T05:09:49;1.17;;;0.50;;
16242;SDS011;11719;51.052;6.982;2024-03-02T05:12:15;0.80;;;0.53;;
16242;SDS011;11719;51.052;6.982;2024-03-02T05:15:00;0.77;;;0.53;;
16242;SDS011;11719;51.052;6.982;2024-03-02T05:17:27;0.43;;;0.33;;
16242;SDS011;11719;51.052;6.982;2024-03-02T05:19:52;0.33;;;0.30;;
16242;SDS011;11719;51.052;6.982;2024-03-02T05:22:18;0.97;;;0.53;;
16242;SDS011;11719;51.052;6.982;2024-03-02T05:24:44;0.50;;;0.40;;
16242;SDS011;11719;51.052;6.982;2024-03-02T05:27:13;1.03;;;0.30;;
16242;SDS011;11719;51.052;6.982;2024-03-02T05:29:39;1.03;;;0.50;;
16242;SDS011;11719;51.052;6.982;2024-03-02T05:32:05;2.23;;;0.47;;
16242;SDS011;11719;51.052;6.982;2024-03-02T05:34:40;0.80;;;0.60;;
16242;SDS011;11719;51.052;6.982;2024-03-02T05:37:06;1.80;;;0.93;;
16242;SDS011;11719;51.052;6.982;2024-03-02T05:39:32;1.67;;;0.60;;
16242;SDS011;11719;51.052;6.982;2024-03-02T05:41:57;1.20;;;0.60;;
16242;SDS011;11719;51.052;6.982;2024-03-02T05:44:23;2.67;;;1.00;;
16242;SDS011;11719;51.052;6.982;2024-03-02T05:46:49;0.30;;;0.30;;
16242;SDS011;11719;51.052;6.982;2024-03-02T05:49:15;0.67;;;0.47;;
16242;SDS011;11719;51.052;6.982;2024-03-02T05:51:41;0.83;;;0.47;;
16242;SDS011;11719;51.052;6.982;2024-03-02T05:54:06;2.50;;;0.70;;
16242;SDS011;11719;51.052;6.982;2024-03-02T05:56:32;1.30;;;0.80;;
16242;SDS011;11719;51.052;6.982;2024-03-02T05:58:58;1.30;;;0.70;;
16242;SDS011;11719;51.052;6.982;2024-03-02T06:01:42;0.43;;;0.30;;
16242;SDS011;11719;51.052;6.982;2024-03-02T06:04:11;1.83;;;0.87;;
16242;SDS011;11719;51.052;6.982;2024-03-02T06:06:38;0.60;;;0.40;;
16242;SDS011;11719;51.052;6.982;2024-03-02T06:09:06;2.50;;;0.80;;
16242;SDS011;11719;51.052;6.982;2024-03-02T06:11:33;0.40;;;0.40;;
16242;SDS011;11719;51.052;6.982;2024-03-02T06:13:59;1.17;;;0.67;;
16242;SDS011;11719;51.052;6.982;2024-03-02T06:16:25;3.03;;;0.80;;
16242;SDS011;11719;51.052;6.982;2024-03-02T06:18:50;0.70;;;0.63;;
16242;SDS011;11719;51.052;6.982;2024-03-02T06:21:16;2.57;;;0.63;;
16242;SDS011;11719;51.052;6.982;2024-03-02T06:23:43;2.17;;;1.07;;
16242;SDS011;11719;51.052;6.982;2024-03-02T06:26:09;0.40;;;0.40;;
16242;SDS011;11719;51.052;6.982;2024-03-02T06:28:37;0.97;;;0.80;;
16242;SDS011;11719;51.052;6.982;2024-03-02T06:31:03;0.83;;;0.67;;
16242;SDS011;11719;51.052;6.982;2024-03-02T06:33:31;0.80;;;0.50;;
16242;SDS011;11719;51.052;6.982;2024-03-02T06:35:57;1.37;;;0.73;;
16242;SDS011;11719;51.052;6.982;2024-03-02T06:38:23;1.20;;;0.40;;
16242;SDS011;11719;51.052;6.982;2024-03-02T06:40:49;1.00;;;0.77;;
16242;SDS011;11719;51.052;6.982;2024-03-02T06:43:15;3.17;;;0.57;;
16242;SDS011;11719;51.052;6.982;2024-03-02T06:45:41;2.27;;;0.90;;
16242;SDS011;11719;51.052;6.982;2024-03-02T06:48:07;1.80;;;0.77;;
16242;SDS011;11719;51.052;6.982;2024-03-02T06:50:32;1.63;;;1.00;;
16242;SDS011;11719;51.052;6.982;2024-03-02T06:52:58;2.17;;;1.03;;
16242;SDS011;11719;51.052;6.982;2024-03-02T06:55:29;1.67;;;1.27;;
16242;SDS011;11719;51.052;6.982;2024-03-02T06:57:54;1.27;;;1.00;;
16242;SDS011;11719;51.052;6.982;2024-03-02T07:00:20;1.00;;;0.90;;
16242;SDS011;11719;51.052;6.982;2024-03-02T07:02:46;0.57;;;0.33;;
16242;SDS011;11719;51.052;6.982;2024-03-02T07:05:14;2.23;;;1.03;;
16242;SDS011;11719;51.052;6.982;2024-03-02T07:07:43;1.03;;;0.67;;
16242;SDS011;11719;51.052;6.982;2024-03-02T07:10:08;2.70;;;0.90;;
16242;SDS011;11719;51.052;6.982;2024-03-02T07:12:34;1.07;;;0.87;;
16242;SDS011;11719;51.052;6.982;2024-03-02T07:15:00;1.93;;;0.93;;
16242;SDS011;11719;51.052;6.982;2024-03-02T07:17:32;1.87;;;1.17;;
16242;SDS011;11719;51.052;6.982;2024-03-02T07:19:58;1.70;;;1.17;;
16242;SDS011;11719;51.052;6.982;2024-03-02T07:22:24;1.17;;;0.90;;
16242;SDS011;11719;51.052;6.982;2024-03-02T07:24:50;3.13;;;1.10;;
16242;SDS011;11719;51.052;6.982;2024-03-02T07:27:16;2.10;;;1.00;;
16242;SDS011;11719;51.052;6.982;2024-03-02T07:29:42;3.90;;;0.90;;
16242;SDS011;11719;51.052;6.982;2024-03-02T07:32:11;1.73;;;0.70;;
16242;SDS011;11719;51.052;6.982;2024-03-02T07:34:37;1.60;;;0.70;;
16242;SDS011;11719;51.052;6.982;2024-03-02T07:37:02;2.20;;;1.10;;
16242;SDS011;11719;51.052;6.982;2024-03-02T07:39:29;1.57;;;1.00;;
16242;SDS011;11719;51.052;6.982;2024-03-02T07:41:55;3.17;;;1.03;;
16242;SDS011;11719;51.052;6.982;2024-03-02T07:44:21;1.53;;;1.00;;
16242;SDS011;11719;51.052;6.982;2024-03-02T07:46:49;0.80;;;0.60;;
16242;SDS011;11719;51.052;6.982;2024-03-02T07:49:15;1.40;;;0.77;;
16242;SDS011;11719;51.052;6.982;2024-03-02T07:51:41;1.03;;;0.40;;
16242;SDS011;11719;51.052;6.982;2024-03-02T07:54:07;0.97;;;0.47;;
16242;SDS011;11719;51.052;6.982;2024-03-02T07:56:33;2.33;;;0.97;;
16242;SDS011;11719;51.052;6.982;2024-03-02T07:59:00;0.87;;;0.77;;
16242;SDS011;11719;51.052;6.982;2024-03-02T08:01:27;0.97;;;0.67;;
16242;SDS011;11719;51.052;6.982;2024-03-02T08:03:57;1.63;;;0.77;;
16242;SDS011;11719;51.052;6.982;2024-03-02T08:06:24;1.83;;;1.33;;
16242;SDS011;11719;51.052;6.982;2024-03-02T08:08:53;1.37;;;0.93;;
16242;SDS011;11719;51.052;6.982;2024-03-02T08:11:21;3.07;;;1.20;;
16242;SDS011;11719;51.052;6.982;2024-03-02T08:13:47;4.30;;;1.30;;
16242;SDS011;11719;51.052;6.982;2024-03-02T08:16:16;1.53;;;0.90;;
16242;SDS011;11719;51.052;6.982;2024-03-02T08:18:45;1.53;;;1.03;;
16242;SDS011;11719;51.052;6.982;2024-03-02T08:21:14;1.67;;;0.93;;
16242;SDS011;11719;51.052;6.982;2024-03-02T08:23:43;1.70;;;1.00;;
16242;SDS011;11719;51.052;6.982;2024-03-02T08:26:09;1.37;;;0.93;;
16242;SDS011;11719;51.052;6.982;2024-03-02T08:28:36;3.30;;;1.30;;
16242;SDS011;11719;51.052;6.982;2024-03-02T08:31:02;2.00;;;0.97;;
16242;SDS011;11719;51.052;6.982;2024-03-02T08:33:29;2.53;;;1.10;;
16242;SDS011;11719;51.052;6.982;2024-03-02T08:35:55;2.03;;;1.37;;
16242;SDS011;11719;51.052;6.982;2024-03-02T08:38:24;2.30;;;1.23;;
16242;SDS011;11719;51.052;6.982;2024-03-02T08:40:50;1.53;;;0.90;;
16242;SDS011;11719;51.052;6.982;2024-03-02T08:43:16;4.03;;;1.27;;
16242;SDS011;11719;51.052;6.982;2024-03-02T08:45:45;2.97;;;1.07;;
16242;SDS011;11719;51.052;6.982;2024-03-02T08:48:12;1.43;;;0.87;;
16242;SDS011;11719;51.052;6.982;2024-03-02T08:50:38;2.67;;;0.83;;
16242;SDS011;11719;51.052;6.982;2024-03-02T08:53:03;4.03;;;1.27;;
16242;SDS011;11719;51.052;6.982;2024-03-02T08:55:29;1.60;;;1.20;;
16242;SDS011;11719;51.052;6.982;2024-03-02T08:57:55;1.23;;;0.70;;
16242;SDS011;11719;51.052;6.982;2024-03-02T09:00:21;5.43;;;0.90;;
16242;SDS011;11719;51.052;6.982;2024-03-02T09:02:50;5.70;;;1.37;;
16242;SDS011;11719;51.052;6.982;2024-03-02T09:05:16;1.60;;;0.80;;
16242;SDS011;11719;51.052;6.982;2024-03-02T09:07:41;3.13;;;1.23;;
16242;SDS011;11719;51.052;6.982;2024-03-02T09:10:08;4.30;;;1.33;;
16242;SDS011;11719;51.052;6.982;2024-03-02T09:12:37;2.23;;;1.17;;
16242;SDS011;11719;51.052;6.982;2024-03-02T09:15:04;4.53;;;1.07;;
16242;SDS011;11719;51.052;6.982;2024-03-02T09:17:33;2.60;;;1.27;;
16242;SDS011;11719;51.052;6.982;2024-03-02T09:19:59;0.93;;;0.70;;
16242;SDS011;11719;51.052;6.982;2024-03-02T09:22:25;1.97;;;0.77;;
16242;SDS011;11719;51.052;6.982;2024-03-02T09:24:50;2.27;;;0.90;;
16242;SDS011;11719;51.052;6.982;2024-03-02T09:27:18;0.83;;;0.57;;
16242;SDS011;11719;51.052;6.982;2024-03-02T09:29:46;1.23;;;0.60;;
16242;SDS011;11719;51.052;6.982;2024-03-02T09:32:12;1.20;;;0.73;;
16242;SDS011;11719;51.052;6.982;2024-03-02T09:34:39;3.73;;;0.87;;
16242;SDS011;11719;51.052;6.982;2024-03-02T09:37:05;1.07;;;0.50;;
16242;SDS011;11719;51.052;6.982;2024-03-02T09:39:31;2.70;;;1.00;;
16242;SDS011;11719;51.052;6.982;2024-03-02T09:41:57;1.33;;;0.70;;
16242;SDS011;11719;51.052;6.982;2024-03-02T09:44:24;1.53;;;0.63;;
16242;SDS011;11719;51.052;6.982;2024-03-02T09:46:52;0.37;;;0.37;;
16242;SDS011;11719;51.052;6.982;2024-03-02T09:49:18;0.70;;;0.60;;
16242;SDS011;11719;51.052;6.982;2024-03-02T09:51:47;1.60;;;0.83;;
16242;SDS011;11719;51.052;6.982;2024-03-02T09:54:15;1.73;;;0.47;;
16242;SDS011;11719;51.052;6.982;2024-03-02T09:56:42;1.33;;;0.60;;
16242;SDS011;11719;51.052;6.982;2024-03-02T09:59:08;2.87;;;0.80;;
16242;SDS011;11719;51.052;6.982;2024-03-02T10:01:33;0.80;;;0.50;;
16242;SDS011;11719;51.052;6.982;2024-03-02T10:03:59;0.60;;;0.60;;
16242;SDS011;11719;51.052;6.982;2024-03-02T10:06:26;0.60;;;0.57;;
16242;SDS011;11719;51.052;6.982;2024-03-02T10:08:54;0.60;;;0.50;;
16242;SDS011;11719;51.052;6.982;2024-03-02T10:11:34;0.93;;;0.53;;
16242;SDS011;11719;51.052;6.982;2024-03-02T10:14:09;0.90;;;0.50;;
16242;SDS011;11719;51.052;6.982;2024-03-02T10:16:42;2.00;;;0.50;;
16242;SDS011;11719;51.052;6.982;2024-03-02T10:19:16;2.03;;;0.57;;
16242;SDS011;11719;51.052;6.982;2024-03-02T10:21:49;2.17;;;0.40;;
16242;SDS011;11719;51.052;6.982;2024-03-02T10:24:17;2.57;;;0.57;;
16242;SDS011;11719;51.052;6.982;2024-03-02T10:26:44;1.23;;;0.57;;
16242;SDS011;11719;51.052;6.982;2024-03-02T10:29:10;0.73;;;0.50;;
16242;SDS011;11719;51.052;6.982;2024-03-02T10:31:40;1.60;;;0.80;;
16242;SDS011;11719;51.052;6.982;2024-03-02T10:34:09;0.40;;;0.37;;
16242;SDS011;11719;51.052;6.982;2024-03-02T10:36:36;0.40;;;0.40;;
16242;SDS011;11719;51.052;6.982;2024-03-02T10:39:03;0.70;;;0.50;;
16242;SDS011;11719;51.052;6.982;2024-03-02T10:41:33;0.40;;;0.40;;
16242;SDS011;11719;51.052;6.982;2024-03-02T10:44:04;1.50;;;0.53;;
16242;SDS011;11719;51.052;6.982;2024-03-02T10:46:35;2.00;;;0.50;;
16242;SDS011;11719;51.052;6.982;2024-03-02T10:49:05;1.03;;;0.53;;
16242;SDS011;11719;51.052;6.982;2024-03-02T10:51:32;2.40;;;0.77;;
16242;SDS011;11719;51.052;6.982;2024-03-02T10:54:02;1.27;;;0.50;;
16242;SDS011;11719;51.052;6.982;2024-03-02T10:56:29;1.03;;;0.60;;
16242;SDS011;11719;51.052;6.982;2024-03-02T11:01:53;0.27;;;0.27;;
16242;SDS011;11719;51.052;6.982;2024-03-02T11:04:28;0.37;;;0.33;;
16242;SDS011;11719;51.052;6.982;2024-03-02T11:06:59;0.60;;;0.43;;
16242;SDS011;11719;51.052;6.982;2024-03-02T11:09:36;3.40;;;0.43;;
16242;SDS011;11719;51.052;6.982;2024-03-02T11:12:09;1.50;;;0.63;;
16242;SDS011;11719;51.052;6.982;2024-03-02T11:14:43;2.53;;;0.50;;
16242;SDS011;11719;51.052;6.982;2024-03-02T11:17:08;0.43;;;0.30;;
16242;SDS011;11719;51.052;6.982;2024-03-02T11:19:36;1.13;;;0.73;;
16242;SDS011;11719;51.052;6.982;2024-03-02T11:22:04;0.57;;;0.33;;
16242;SDS011;11719;51.052;6.982;2024-03-02T11:24:31;2.10;;;0.43;;
16242;SDS011;11719;51.052;6.982;2024-03-02T11:27:04;1.10;;;0.40;;
16242;SDS011;11719;51.052;6.982;2024-03-02T11:32:05;0.40;;;0.27;;
16242;SDS011;11719;51.052;6.982;2024-03-02T11:34:39;1.80;;;0.60;;
16242;SDS011;11719;51.052;6.982;2024-03-02T11:37:20;0.83;;;0.30;;
16242;SDS011;11719;51.052;6.982;2024-03-02T11:39:51;0.97;;;0.30;;
16242;SDS011;11719;51.052;6.982;2024-03-02T11:42:17;0.47;;;0.30;;
16242;SDS011;11719;51.052;6.982;2024-03-02T11:44:46;1.00;;;0.50;;
16242;SDS011;11719;51.052;6.982;2024-03-02T11:47:16;2.47;;;0.70;;
16242;SDS011;11719;51.052;6.982;2024-03-02T11:49:46;1.40;;;0.87;;
16242;SDS011;11719;51.052;6.982;2024-03-02T11:52:19;0.63;;;0.50;;
16242;SDS011;11719;51.052;6.982;2024-03-02T11:54:49;0.97;;;0.30;;
16242;SDS011;11719;51.052;6.982;2024-03-02T11:57:19;0.50;;;0.30;;
16242;SDS011;11719;51.052;6.982;2024-03-02T11:59:49;1.40;;;0.43;;
16242;SDS011;11719;51.052;6.982;2024-03-02T12:02:19;0.60;;;0.40;;
16242;SDS011;11719;51.052;6.982;2024-03-02T12:04:48;0.67;;;0.50;;
16242;SDS011;11719;51.052;6.982;2024-03-02T12:07:21;0.73;;;0.50;;
16242;SDS011;11719;51.052;6.982;2024-03-02T12:09:48;0.30;;;0.27;;
16242;SDS011;11719;51.052;6.982;2024-03-02T12:12:24;2.00;;;0.80;;
16242;SDS011;11719;51.052;6.982;2024-03-02T12:14:52;1.03;;;0.80;;
16242;SDS011;11719;51.052;6.982;2024-03-02T12:17:22;0.77;;;0.40;;
16242;SDS011;11719;51.052;6.982;2024-03-02T12:19:51;1.87;;;0.50;;
16242;SDS011;11719;51.052;6.982;2024-03-02T12:22:17;0.87;;;0.80;;
16242;SDS011;11719;51.052;6.982;2024-03-02T12:24:48;1.17;;;0.70;;
16242;SDS011;11719;51.052;6.982;2024-03-02T12:27:17;0.63;;;0.40;;
16242;SDS011;11719;51.052;6.982;2024-03-02T12:29:48;1.33;;;0.60;;
16242;SDS011;11719;51.052;6.982;2024-03-02T12:32:15;0.60;;;0.27;;
16242;SDS011;11719;51.052;6.982;2024-03-02T12:34:41;0.70;;;0.40;;
16242;SDS011;11719;51.052;6.982;2024-03-02T12:37:06;0.83;;;0.43;;
16242;SDS011;11719;51.052;6.982;2024-03-02T12:39:32;0.77;;;0.30;;
16242;SDS011;11719;51.052;6.982;2024-03-02T12:41:58;1.23;;;0.43;;
16242;SDS011;11719;51.052;6.982;2024-03-02T12:44:24;0.57;;;0.57;;
16242;SDS011;11719;51.052;6.982;2024-03-02T12:46:49;0.70;;;0.30;;
16242;SDS011;11719;51.052;6.982;2024-03-02T12:49:21;0.57;;;0.40;;
16242;SDS011;11719;51.052;6.982;2024-03-02T12:51:47;0.53;;;0.20;;
16242;SDS011;11719;51.052;6.982;2024-03-02T12:54:21;0.70;;;0.40;;
16242;SDS011;11719;51.052;6.982;2024-03-02T12:56:49;0.40;;;0.40;;
16242;SDS011;11719;51.052;6.982;2024-03-02T12:59:20;0.40;;;0.30;;
16242;SDS011;11719;51.052;6.982;2024-03-02T13:01:51;0.40;;;0.30;;
16242;SDS011;11719;51.052;6.982;2024-03-02T13:04:28;2.53;;;0.60;;
16242;SDS011;11719;51.052;6.982;2024-03-02T13:06:55;1.07;;;0.77;;
16242;SDS011;11719;51.052;6.982;2024-03-02T13:09:22;2.57;;;1.13;;
16242;SDS011;11719;51.052;6.982;2024-03-02T13:11:49;0.57;;;0.40;;
16242;SDS011;11719;51.052;6.982;2024-03-02T13:14:17;0.47;;;0.30;;
16242;SDS011;11719;51.052;6.982;2024-03-02T13:16:45;0.40;;;0.40;;
16242;SDS011;11719;51.052;6.982;2024-03-02T13:19:12;0.20;;;0.10;;
16242;SDS011;11719;51.052;6.982;2024-03-02T13:21:37;0.53;;;0.27;;
16242;SDS011;11719;51.052;6.982;2024-03-02T13:24:07;1.17;;;0.53;;
16242;SDS011;11719;51.052;6.982;2024-03-02T13:26:33;1.07;;;0.37;;
16242;SDS011;11719;51.052;6.982;2024-03-02T13:28:59;0.67;;;0.40;;
16242;SDS011;11719;51.052;6.982;2024-03-02T13:31:25;0.97;;;0.50;;
16242;SDS011;11719;51.052;6.982;2024-03-02T13:33:53;0.47;;;0.30;;
16242;SDS011;11719;51.052;6.982;2024-03-02T13:36:19;0.47;;;0.20;;
16242;SDS011;11719;51.052;6.982;2024-03-02T13:38:45;0.60;;;0.23;;
16242;SDS011;11719;51.052;6.982;2024-03-02T13:41:11;1.00;;;0.40;;
16242;SDS011;11719;51.052;6.982;2024-03-02T13:43:36;1.60;;;0.40;;
16242;SDS011;11719;51.052;6.982;2024-03-02T13:46:03;0.80;;;0.30;;
16242;SDS011;11719;51.052;6.982;2024-03-02T13:48:31;0.67;;;0.20;;
16242;SDS011;11719;51.052;6.982;2024-03-02T13:50:57;1.57;;;0.50;;
16242;SDS011;11719;51.052;6.982;2024-03-02T13:53:23;0.43;;;0.40;;
16242;SDS011;11719;51.052;6.982;2024-03-02T13:55:49;1.43;;;0.40;;
16242;SDS011;11719;51.052;6.982;2024-03-02T13:58:14;1.00;;;0.40;;
16242;SDS011;11719;51.052;6.982;2024-03-02T14:00:40;0.30;;;0.20;;
16242;SDS011;11719;51.052;6.982;2024-03-02T14:03:09;0.70;;;0.37;;
16242;SDS011;11719;51.052;6.982;2024-03-02T14:05:35;0.47;;;0.40;;
16242;SDS011;11719;51.052;6.982;2024-03-02T14:08:01;0.97;;;0.30;;
16242;SDS011;11719;51.052;6.982;2024-03-02T14:10:27;0.93;;;0.40;;
16242;SDS011;11719;51.052;6.982;2024-03-02T14:12:53;2.53;;;0.57;;
16242;SDS011;11719;51.052;6.982;2024-03-02T14:15:22;1.80;;;0.93;;
16242;SDS011;11719;51.052;6.982;2024-03-02T14:17:51;1.30;;;0.80;;
16242;SDS011;11719;51.052;6.982;2024-03-02T14:20:17;0.40;;;0.40;;
16242;SDS011;11719;51.052;6.982;2024-03-02T14:22:47;0.57;;;0.50;;
16242;SDS011;11719;51.052;6.982;2024-03-02T14:25:13;0.30;;;0.30;;
16242;SDS011;11719;51.052;6.982;2024-03-02T14:27:42;0.63;;;0.30;;
16242;SDS011;11719;51.052;6.982;2024-03-02T14:30:08;1.80;;;0.40;;
16242;SDS011;11719;51.052;6.982;2024-03-02T14:32:34;0.20;;;0.20;;
16242;SDS011;11719;51.052;6.982;2024-03-02T14:34:59;0.67;;;0.30;;
16242;SDS011;11719;51.052;6.982;2024-03-02T14:37:25;0.57;;;0.23;;
16242;SDS011;11719;51.052;6.982;2024-03-02T14:39:51;0.87;;;0.30;;
16242;SDS011;11719;51.052;6.982;2024-03-02T14:42:17;0.20;;;0.20;;
16242;SDS011;11719;51.052;6.982;2024-03-02T14:44:42;0.30;;;0.30;;
16242;SDS011;11719;51.052;6.982;2024-03-02T14:47:09;0.47;;;0.33;;
16242;SDS011;11719;51.052;6.982;2024-03-02T14:49:35;0.30;;;0.30;;
16242;SDS011;11719;51.052;6.982;2024-03-02T14:52:05;2.50;;;0.40;;
16242;SDS011;11719;51.052;6.982;2024-03-02T14:54:32;0.40;;;0.33;;
16242;SDS011;11719;51.052;6.982;2024-03-02T14:57:07;1.23;;;0.40;;
16242;SDS011;11719;51.052;6.982;2024-03-02T14:59:33;0.40;;;0.30;;
16242;SDS011;11719;51.052;6.982;2024-03-02T15:01:59;0.20;;;0.20;;